Airport Name : Campo Dell Oro

Other Name : Ajaccio

ICAO : LFKJ

IATA : AJA

FAA :

Latitude : 41.923637

Longitude : 8.802917

Country : France

Local Date and Time : 10/23/2018 9:30:00 AM

 

TAF (Terminal Aerodrome Forecast)

TAF LFKJ 230200Z 2303/2403 06006KT CAVOK BECMG 2308/2310 22010KT BECMG 2317/2318 04006KT

 

METAR (METeorological Aerodrome Report)

LFKJ 230700Z AUTO 05005KT CAVOK 10/06 Q1021 BECMG 22010KT

LFKJ 230630Z AUTO 04005KT CAVOK 09/06 Q1021 BECMG 22010KT

LFKJ 230600Z AUTO 05005KT CAVOK 09/06 Q1020 NOSIG

LFKJ 230530Z AUTO 05006KT CAVOK 08/05 Q1020 NOSIG

LFKJ 230500Z AUTO 04005KT 010V080 CAVOK 09/06 Q1019 NOSIG

LFKJ 230430Z AUTO 04006KT CAVOK 10/05 Q1019 NOSIG

LFKJ 230400Z AUTO 07004KT 020V120 CAVOK 10/05 Q1019 NOSIG